Terminal Aerodrome Forecast
Issued by NWS Nashville, TN

Home | Current Version | Previous Version | Text Only | Print | Product List | Glossary On
Versions: 1 2 3 4 5 6 7 8 9 10 11 12 13 14 15
192
FTUS44 KOHX 261141
TAFBNA
TAF
KBNA 261141Z 2612/2712 18004KT P6SM VCSH SCT040 SCT120 BKN250
     FM262000 22006KT P6SM VCTS BKN040CB BKN120 BKN250
     FM270200 18004KT P6SM VCSH SCT040 BKN120 BKN250=

USA.gov is the U.S. government's official web portal to all federal, state and local government web resources and services.